createdAt,value
2018-11-29T00:00:15.150Z,0
2018-11-29T00:01:25.327Z,0
2018-11-29T00:02:35.653Z,0
2018-11-29T00:03:45.826Z,0
2018-11-29T00:04:56.000Z,0
2018-11-29T00:06:06.177Z,0
2018-11-29T00:07:16.349Z,0
2018-11-29T00:08:26.674Z,0
2018-11-29T00:09:36.847Z,0
2018-11-29T00:10:46.757Z,0
2018-11-29T00:11:56.931Z,0
2018-11-29T00:13:07.142Z,0
2018-11-29T00:14:17.464Z,0
2018-11-29T00:15:27.638Z,0
2018-11-29T00:16:37.702Z,0
2018-11-29T00:17:47.789Z,0
2018-11-29T00:18:57.846Z,0
2018-11-29T00:20:07.753Z,0
2018-11-29T00:21:17.802Z,0
2018-11-29T00:22:27.894Z,0
2018-11-29T00:23:37.941Z,0
2018-11-29T00:24:48.002Z,0
2018-11-29T00:25:58.206Z,0
2018-11-29T00:27:08.271Z,0
2018-11-29T00:28:18.320Z,0
2018-11-29T00:29:28.379Z,0
2018-11-29T00:30:38.431Z,0
2018-11-29T00:31:48.580Z,0
2018-11-29T00:32:58.628Z,0
2018-11-29T00:34:08.686Z,0
2018-11-29T00:35:18.734Z,0
2018-11-29T00:36:28.782Z,0
2018-11-29T00:37:38.878Z,0
2018-11-29T00:38:48.934Z,0
2018-11-29T00:39:58.981Z,0
2018-11-29T00:41:09.042Z,0
2018-11-29T00:42:19.099Z,0
2018-11-29T00:43:29.202Z,0
2018-11-29T00:44:39.256Z,0
2018-11-29T00:45:49.314Z,0
2018-11-29T00:46:59.361Z,0
2018-11-29T00:48:09.415Z,0
2018-11-29T00:49:19.619Z,0
2018-11-29T00:50:29.418Z,0
2018-11-29T00:51:39.473Z,0
2018-11-29T00:52:49.525Z,0
2018-11-29T00:53:59.317Z,0
2018-11-29T00:55:09.544Z,0
2018-11-29T00:56:19.594Z,0
2018-11-29T00:57:29.652Z,0
2018-11-29T00:58:39.713Z,0
2018-11-29T00:59:49.762Z,0
2018-11-29T01:00:59.915Z,0
2018-11-29T01:02:09.968Z,0
2018-11-29T01:03:20.017Z,0
2018-11-29T01:04:30.065Z,0
2018-11-29T01:05:40.117Z,0
2018-11-29T01:06:50.276Z,0
2018-11-29T01:08:00.328Z,0
2018-11-29T01:09:10.373Z,0
2018-11-29T01:10:20.427Z,0
2018-11-29T01:11:30.518Z,0
2018-11-29T01:12:40.666Z,0
2018-11-29T01:13:50.718Z,0
2018-11-29T01:15:00.767Z,0
2018-11-29T01:16:10.820Z,0
2018-11-29T01:17:20.870Z,0
2018-11-29T01:18:31.018Z,0
2018-11-29T01:19:41.076Z,0
2018-11-29T01:20:51.139Z,0
2018-11-29T01:22:01.186Z,0
2018-11-29T01:23:11.237Z,0
2018-11-29T01:24:21.393Z,0
2018-11-29T01:25:31.452Z,0
2018-11-29T01:26:41.513Z,0
2018-11-29T01:27:51.562Z,0
2018-11-29T01:29:01.611Z,0
2018-11-29T01:30:11.509Z,0
2018-11-29T01:31:21.582Z,0
2018-11-29T01:32:31.633Z,0
2018-11-29T01:33:41.683Z,0
2018-11-29T01:34:51.734Z,0
2018-11-29T01:36:01.885Z,0
2018-11-29T01:37:11.940Z,0
2018-11-29T01:38:22.005Z,0
2018-11-29T01:39:32.062Z,0
2018-11-29T01:40:42.114Z,0
2018-11-29T01:41:52.280Z,0
2018-11-29T01:43:02.328Z,0
2018-11-29T01:44:12.382Z,0
2018-11-29T01:45:22.442Z,0
2018-11-29T01:46:32.495Z,0
2018-11-29T01:47:42.646Z,0
2018-11-29T01:48:52.697Z,0
2018-11-29T01:50:02.747Z,0
2018-11-29T01:51:12.799Z,0
2018-11-29T01:52:22.860Z,0
2018-11-29T01:53:32.986Z,0
2018-11-29T01:54:43.050Z,0
2018-11-29T01:55:53.102Z,0
2018-11-29T01:57:03.156Z,0
2018-11-29T01:58:13.206Z,0
2018-11-29T01:59:23.314Z,0
2018-11-29T02:00:33.373Z,0
2018-11-29T02:01:43.422Z,0
2018-11-29T02:02:53.483Z,0
2018-11-29T02:04:03.548Z,0
2018-11-29T02:05:13.647Z,0
2018-11-29T02:06:23.703Z,0
2018-11-29T02:07:33.752Z,0
2018-11-29T02:08:43.799Z,0
2018-11-29T02:09:53.845Z,0
2018-11-29T02:11:03.998Z,0
2018-11-29T02:12:14.047Z,0
2018-11-29T02:13:24.107Z,0
2018-11-29T02:14:33.892Z,0
2018-11-29T02:15:43.951Z,0
2018-11-29T02:16:54.102Z,0
2018-11-29T02:18:04.154Z,0
2018-11-29T02:19:14.207Z,0
2018-11-29T02:20:24.259Z,0
2018-11-29T02:21:34.308Z,0
2018-11-29T02:22:44.472Z,0
2018-11-29T02:23:54.534Z,0
2018-11-29T02:25:04.584Z,0
2018-11-29T02:26:14.636Z,0
2018-11-29T02:27:24.685Z,0
2018-11-29T02:28:34.836Z,0
2018-11-29T02:29:44.889Z,0
2018-11-29T02:30:54.689Z,0
2018-11-29T02:32:04.743Z,0
2018-11-29T02:33:14.800Z,0
2018-11-29T02:34:25.036Z,0
2018-11-29T02:35:35.097Z,0
2018-11-29T02:36:45.151Z,0
2018-11-29T02:37:55.211Z,0
2018-11-29T02:39:05.261Z,0
2018-11-29T02:40:15.465Z,0
2018-11-29T02:41:25.519Z,0
2018-11-29T02:42:35.574Z,0
2018-11-29T02:43:45.625Z,0
2018-11-29T02:44:55.697Z,0
2018-11-29T02:46:05.552Z,0
2018-11-29T02:47:15.367Z,0
2018-11-29T02:48:25.417Z,0
2018-11-29T02:49:35.474Z,0
2018-11-29T02:50:45.538Z,0
2018-11-29T02:51:55.636Z,0
2018-11-29T02:53:05.700Z,0
2018-11-29T02:54:15.765Z,0
2018-11-29T02:55:25.830Z,0
2018-11-29T02:56:35.889Z,0
2018-11-29T02:57:46.090Z,0
2018-11-29T02:58:56.151Z,0
2018-11-29T03:00:06.209Z,0
2018-11-29T03:01:16.266Z,0
2018-11-29T03:02:26.342Z,0
2018-11-29T03:03:36.493Z,0
2018-11-29T03:04:46.549Z,0
2018-11-29T03:05:56.596Z,0
2018-11-29T03:07:06.659Z,0
2018-11-29T03:08:16.705Z,0
2018-11-29T03:09:26.619Z,0
2018-11-29T03:10:36.673Z,0
2018-11-29T03:11:46.731Z,0
2018-11-29T03:12:56.793Z,0
2018-11-29T03:14:06.862Z,0
2018-11-29T03:15:16.972Z,0
2018-11-29T03:16:27.031Z,0
2018-11-29T03:17:37.087Z,0
2018-11-29T03:18:46.882Z,0
2018-11-29T03:19:56.935Z,0
2018-11-29T03:21:07.089Z,0
2018-11-29T03:22:17.145Z,0
2018-11-29T03:23:27.205Z,0
2018-11-29T03:24:37.260Z,0
2018-11-29T03:25:47.322Z,0
2018-11-29T03:26:57.429Z,0
2018-11-29T03:28:07.484Z,0
2018-11-29T03:29:17.563Z,0
2018-11-29T03:30:27.643Z,0
2018-11-29T03:31:37.714Z,0
2018-11-29T03:32:47.950Z,0
2018-11-29T03:33:58.009Z,0
2018-11-29T03:35:08.076Z,0
2018-11-29T03:36:18.143Z,0
2018-11-29T03:37:28.198Z,0
2018-11-29T03:38:38.306Z,0
2018-11-29T03:39:48.382Z,0
2018-11-29T03:40:58.439Z,0
2018-11-29T03:42:08.496Z,0
2018-11-29T03:43:18.550Z,0
2018-11-29T03:44:28.704Z,0
2018-11-29T03:45:38.754Z,0
2018-11-29T03:46:48.814Z,0
2018-11-29T03:47:58.865Z,0
2018-11-29T03:49:08.927Z,0
2018-11-29T03:50:19.096Z,0
2018-11-29T03:51:29.151Z,0
2018-11-29T03:52:39.210Z,0
2018-11-29T03:53:49.274Z,0
2018-11-29T03:54:59.334Z,0
2018-11-29T03:56:09.249Z,0
2018-11-29T03:57:19.305Z,0
2018-11-29T03:58:29.357Z,0
2018-11-29T03:59:39.418Z,0
2018-11-29T04:00:49.467Z,0
2018-11-29T04:01:59.628Z,0
2018-11-29T04:03:09.708Z,0
2018-11-29T04:04:19.818Z,0
2018-11-29T04:05:29.896Z,0
2018-11-29T04:06:39.950Z,0
2018-11-29T04:07:50.115Z,0
2018-11-29T04:09:00.169Z,0
2018-11-29T04:10:10.219Z,0
2018-11-29T04:11:20.280Z,0
2018-11-29T04:12:30.351Z,0
2018-11-29T04:13:40.250Z,0
2018-11-29T04:14:50.307Z,0
2018-11-29T04:16:00.356Z,0
2018-11-29T04:17:10.458Z,0
2018-11-29T04:18:20.516Z,0
2018-11-29T04:19:30.676Z,0
2018-11-29T04:20:40.730Z,0
2018-11-29T04:21:50.783Z,0
2018-11-29T04:23:00.840Z,0
2018-11-29T04:24:10.896Z,0
2018-11-29T04:25:21.100Z,0
2018-11-29T04:26:31.182Z,0
2018-11-29T04:27:41.234Z,0
2018-11-29T04:28:51.288Z,0
2018-11-29T04:30:01.337Z,0
2018-11-29T04:31:11.491Z,0
2018-11-29T04:32:21.554Z,0
2018-11-29T04:33:31.605Z,0
2018-11-29T04:34:41.655Z,0
2018-11-29T04:35:51.712Z,0
2018-11-29T04:37:01.842Z,0
2018-11-29T04:38:11.660Z,0
2018-11-29T04:39:21.727Z,0
2018-11-29T04:40:31.780Z,0
2018-11-29T04:41:41.833Z,0
2018-11-29T04:42:52.058Z,0
2018-11-29T04:44:02.747Z,0
2018-11-29T04:45:12.816Z,0
2018-11-29T04:46:22.868Z,0
2018-11-29T04:47:32.923Z,0
2018-11-29T04:48:43.034Z,0
2018-11-29T04:49:53.090Z,0
2018-11-29T04:51:03.143Z,0
2018-11-29T04:52:13.212Z,0
2018-11-29T04:53:23.269Z,0
2018-11-29T04:54:33.497Z,0
2018-11-29T04:55:43.564Z,0
2018-11-29T04:56:53.620Z,0
2018-11-29T04:58:03.670Z,0
2018-11-29T04:59:13.726Z,0
2018-11-29T05:00:23.889Z,0
2018-11-29T05:01:33.961Z,0
2018-11-29T05:02:44.023Z,0
2018-11-29T05:03:54.083Z,0
2018-11-29T05:05:04.165Z,0
2018-11-29T05:06:14.268Z,0
2018-11-29T05:07:24.324Z,0
2018-11-29T05:08:34.386Z,0
2018-11-29T05:09:44.440Z,0
2018-11-29T05:10:54.495Z,0
2018-11-29T05:12:04.648Z,0
2018-11-29T05:13:14.701Z,0
2018-11-29T05:14:24.758Z,0
2018-11-29T05:15:34.817Z,0
2018-11-29T05:16:44.866Z,0
2018-11-29T05:17:55.046Z,0
2018-11-29T05:19:05.111Z,0
2018-11-29T05:20:14.912Z,0
2018-11-29T05:21:24.964Z,0
2018-11-29T05:22:35.029Z,0
2018-11-29T05:23:45.183Z,0
2018-11-29T05:24:55.241Z,0
2018-11-29T05:26:05.297Z,0
2018-11-29T05:27:15.393Z,0
2018-11-29T05:28:25.454Z,0
2018-11-29T05:29:35.608Z,0
2018-11-29T05:30:45.656Z,0
2018-11-29T05:31:55.706Z,0
2018-11-29T05:33:05.763Z,0
2018-11-29T05:34:15.817Z,0
2018-11-29T05:35:25.969Z,0
2018-11-29T05:36:35.767Z,0
2018-11-29T05:37:45.820Z,0
2018-11-29T05:38:55.871Z,0
2018-11-29T05:40:05.926Z,0
2018-11-29T05:41:16.126Z,0
2018-11-29T05:42:26.179Z,0
2018-11-29T05:43:36.229Z,0
2018-11-29T05:44:46.282Z,0
2018-11-29T05:45:56.335Z,0
2018-11-29T05:47:06.527Z,0
2018-11-29T05:48:16.582Z,0
2018-11-29T05:49:26.633Z,0
2018-11-29T05:50:36.425Z,0
2018-11-29T05:51:46.476Z,0
2018-11-29T05:52:56.636Z,0
2018-11-29T05:54:06.723Z,0
2018-11-29T05:55:16.817Z,0
2018-11-29T05:56:26.868Z,0
2018-11-29T05:57:36.930Z,0
2018-11-29T05:58:47.034Z,0
2018-11-29T05:59:57.095Z,0
2018-11-29T06:01:07.150Z,0
2018-11-29T06:02:17.198Z,0
2018-11-29T06:03:27.248Z,0
2018-11-29T06:04:37.353Z,0
2018-11-29T06:05:47.405Z,0
2018-11-29T06:06:57.459Z,0
2018-11-29T06:08:07.510Z,0
2018-11-29T06:09:17.564Z,0
2018-11-29T06:10:27.720Z,0
2018-11-29T06:11:37.771Z,0
2018-11-29T06:12:47.840Z,0
2018-11-29T06:13:57.896Z,0
2018-11-29T06:15:07.688Z,0
2018-11-29T06:16:17.807Z,0
2018-11-29T06:17:27.855Z,0
2018-11-29T06:18:37.903Z,0
2018-11-29T06:19:47.963Z,0
2018-11-29T06:20:58.016Z,0
2018-11-29T06:22:08.123Z,0
2018-11-29T06:23:18.178Z,0
2018-11-29T06:24:28.231Z,0
2018-11-29T06:25:38.287Z,0
2018-11-29T06:26:48.347Z,0
2018-11-29T06:27:58.559Z,0
2018-11-29T06:29:08.614Z,0
2018-11-29T06:30:18.671Z,0
2018-11-29T06:31:28.807Z,0
2018-11-29T06:32:38.992Z,0
2018-11-29T06:33:49.221Z,0
2018-11-29T06:34:59.403Z,0
2018-11-29T06:36:09.589Z,0
2018-11-29T06:37:19.776Z,0
2018-11-29T06:38:29.953Z,0
2018-11-29T06:39:40.234Z,0
2018-11-29T06:40:50.411Z,0
2018-11-29T06:42:00.589Z,0
2018-11-29T06:43:10.499Z,0
2018-11-29T06:44:20.680Z,0
2018-11-29T06:45:30.954Z,0
2018-11-29T06:46:40.914Z,0
2018-11-29T06:47:51.092Z,0
2018-11-29T06:49:01.344Z,0
2018-11-29T06:50:11.521Z,0
2018-11-29T06:51:21.808Z,0
2018-11-29T06:52:31.994Z,0
2018-11-29T06:53:42.181Z,0
2018-11-29T06:54:52.356Z,0
2018-11-29T06:56:02.533Z,0
2018-11-29T06:57:12.764Z,0
2018-11-29T06:58:22.965Z,0
2018-11-29T06:59:33.151Z,0
2018-11-29T07:00:43.326Z,0
2018-11-29T07:01:53.540Z,0
2018-11-29T07:03:03.827Z,0
2018-11-29T07:04:14.005Z,0
2018-11-29T07:05:24.188Z,0
2018-11-29T07:06:34.377Z,4
2018-11-29T07:07:44.560Z,4
2018-11-29T07:08:54.840Z,4
2018-11-29T07:10:05.021Z,4
2018-11-29T07:11:15.236Z,0
2018-11-29T07:12:25.430Z,0
2018-11-29T07:13:35.613Z,4
2018-11-29T07:14:45.935Z,4
2018-11-29T07:15:56.147Z,4
2018-11-29T07:17:06.395Z,4
2018-11-29T07:18:16.577Z,8
2018-11-29T07:19:26.750Z,4
2018-11-29T07:20:37.000Z,8
2018-11-29T07:21:47.177Z,8
2018-11-29T07:22:57.354Z,8
2018-11-29T07:24:07.539Z,12
2018-11-29T07:25:17.720Z,12
2018-11-29T07:26:27.999Z,12
2018-11-29T07:27:38.172Z,12
2018-11-29T07:28:48.355Z,16
2018-11-29T07:29:58.535Z,24
2018-11-29T07:31:08.747Z,28
2018-11-29T07:32:18.975Z,28
2018-11-29T07:33:29.153Z,32
2018-11-29T07:34:39.351Z,32
2018-11-29T07:35:49.532Z,36
2018-11-29T07:36:59.713Z,40
2018-11-29T07:38:10.042Z,48
2018-11-29T07:39:19.951Z,48
2018-11-29T07:40:30.125Z,48
2018-11-29T07:41:40.306Z,52
2018-11-29T07:42:50.536Z,56
2018-11-29T07:44:00.810Z,72
2018-11-29T07:45:11.112Z,84
2018-11-29T07:46:22.239Z,84
2018-11-29T07:47:32.415Z,84
2018-11-29T07:48:42.592Z,96
2018-11-29T07:49:52.877Z,108
2018-11-29T07:51:03.054Z,104
2018-11-29T07:52:13.226Z,96
2018-11-29T07:53:23.660Z,108
2018-11-29T07:54:33.842Z,124
2018-11-29T07:55:44.127Z,160
2018-11-29T07:56:54.303Z,164
2018-11-29T07:58:04.486Z,176
2018-11-29T07:59:14.677Z,176
2018-11-29T08:00:24.868Z,168
2018-11-29T08:01:35.103Z,156
2018-11-29T08:02:45.289Z,128
2018-11-29T08:03:55.200Z,120
2018-11-29T08:05:05.380Z,124
2018-11-29T08:06:15.557Z,144
2018-11-29T08:07:25.789Z,172
2018-11-29T08:08:35.968Z,176
2018-11-29T08:09:46.148Z,188
2018-11-29T08:10:56.330Z,196
2018-11-29T08:12:06.507Z,200
2018-11-29T08:13:16.836Z,228
2018-11-29T08:14:27.014Z,228
2018-11-29T08:15:37.190Z,216
2018-11-29T08:16:47.373Z,212
2018-11-29T08:17:57.554Z,220
2018-11-29T08:19:07.883Z,216
2018-11-29T08:20:18.061Z,220
2018-11-29T08:21:28.241Z,248
2018-11-29T08:22:38.424Z,284
2018-11-29T08:23:48.608Z,316
2018-11-29T08:24:58.840Z,356
2018-11-29T08:26:09.020Z,384
2018-11-29T08:27:19.195Z,356
2018-11-29T08:28:29.381Z,380
2018-11-29T08:29:42.474Z,336
2018-11-29T08:30:52.704Z,280
2018-11-29T08:32:02.886Z,252
2018-11-29T08:33:13.070Z,232
2018-11-29T08:34:23.247Z,236
2018-11-29T08:35:33.427Z,232
2018-11-29T08:36:43.705Z,216
2018-11-29T08:37:53.887Z,224
2018-11-29T08:39:03.817Z,212
2018-11-29T08:40:14.007Z,212
2018-11-29T08:41:24.196Z,216
2018-11-29T08:42:34.430Z,232
2018-11-29T08:43:44.607Z,264
2018-11-29T08:44:54.790Z,320
2018-11-29T08:46:04.986Z,388
2018-11-29T08:47:15.169Z,504
2018-11-29T08:48:25.426Z,596
2018-11-29T08:49:35.601Z,676
2018-11-29T08:50:45.781Z,724
2018-11-29T08:51:55.961Z,800
2018-11-29T08:53:06.142Z,828
2018-11-29T08:54:16.419Z,832
2018-11-29T08:55:26.605Z,812
2018-11-29T08:56:36.786Z,804
2018-11-29T08:57:46.968Z,728
2018-11-29T08:58:57.145Z,748
2018-11-29T09:00:07.403Z,756
2018-11-29T09:01:17.584Z,780
2018-11-29T09:02:27.766Z,772
2018-11-29T09:03:37.945Z,712
2018-11-29T09:04:48.132Z,752
2018-11-29T09:05:58.863Z,728
2018-11-29T09:07:09.168Z,720
2018-11-29T09:08:19.348Z,712
2018-11-29T09:09:29.531Z,676
2018-11-29T09:10:39.718Z,716
2018-11-29T09:11:50.354Z,704
2018-11-29T09:13:00.533Z,716
2018-11-29T09:14:10.723Z,784
2018-11-29T09:15:20.914Z,808
2018-11-29T09:16:31.091Z,756
2018-11-29T09:17:41.423Z,724
2018-11-29T09:18:51.609Z,832
2018-11-29T09:20:01.796Z,1044
2018-11-29T09:21:11.985Z,1036
2018-11-29T09:22:22.601Z,1076
2018-11-29T09:23:32.879Z,1084
2018-11-29T09:24:43.060Z,1128
2018-11-29T09:25:53.239Z,1144
2018-11-29T09:27:03.419Z,1104
2018-11-29T09:28:13.599Z,1152
2018-11-29T09:29:23.884Z,1160
2018-11-29T09:30:34.067Z,1188
2018-11-29T09:31:44.260Z,1300
2018-11-29T09:32:54.444Z,1408
2018-11-29T09:34:04.624Z,1452
2018-11-29T09:35:14.961Z,1404
2018-11-29T09:36:26.809Z,1544
2018-11-29T09:37:36.999Z,1464
2018-11-29T09:38:47.183Z,1584
2018-11-29T09:39:57.365Z,1732
2018-11-29T09:41:07.707Z,1796
2018-11-29T09:42:17.896Z,1928
2018-11-29T09:43:28.087Z,1796
2018-11-29T09:44:38.273Z,1912
2018-11-29T09:45:48.451Z,1884
2018-11-29T09:46:58.727Z,1808
2018-11-29T09:48:08.913Z,1796
2018-11-29T09:49:19.094Z,1868
2018-11-29T09:50:29.346Z,1912
2018-11-29T09:51:39.533Z,1548
2018-11-29T09:52:49.869Z,1420
2018-11-29T09:54:00.055Z,1384
2018-11-29T09:55:10.236Z,1704
2018-11-29T09:56:20.419Z,1776
2018-11-29T09:57:30.335Z,1620
2018-11-29T09:58:40.647Z,1540
2018-11-29T09:59:50.834Z,1428
2018-11-29T10:01:01.014Z,1360
2018-11-29T10:02:11.199Z,1324
2018-11-29T10:03:21.416Z,1268
2018-11-29T10:04:31.707Z,1232
2018-11-29T10:05:41.891Z,1324
2018-11-29T10:06:52.122Z,1340
2018-11-29T10:08:02.318Z,1300
2018-11-29T10:09:19.453Z,1392
2018-11-29T10:10:29.791Z,1560
2018-11-29T10:11:39.973Z,1756
2018-11-29T10:12:50.160Z,1816
2018-11-29T10:14:00.348Z,1716
2018-11-29T10:15:10.536Z,1772
2018-11-29T10:16:20.720Z,1880
2018-11-29T10:17:30.901Z,1964
2018-11-29T10:18:41.080Z,2152
2018-11-29T10:19:51.259Z,2352
2018-11-29T10:21:01.441Z,2408
2018-11-29T10:22:11.523Z,2300
2018-11-29T10:23:21.481Z,1956
2018-11-29T10:24:31.665Z,1840
2018-11-29T10:25:41.847Z,1744
2018-11-29T10:26:52.031Z,1640
2018-11-29T10:28:02.221Z,1536
2018-11-29T10:29:12.405Z,1428
2018-11-29T10:30:22.586Z,1372
2018-11-29T10:31:32.769Z,1340
2018-11-29T10:32:42.953Z,1240
2018-11-29T10:33:53.195Z,1168
2018-11-29T10:35:03.379Z,1084
2018-11-29T10:36:13.562Z,1012
2018-11-29T10:37:23.746Z,952
2018-11-29T10:38:33.930Z,892
2018-11-29T10:39:45.323Z,888
2018-11-29T10:40:55.551Z,876
2018-11-29T10:42:05.735Z,876
2018-11-29T10:43:15.923Z,844
2018-11-29T10:44:26.105Z,920
2018-11-29T10:45:36.288Z,996
2018-11-29T10:46:46.474Z,956
2018-11-29T10:47:59.599Z,892
2018-11-29T10:49:09.785Z,860
2018-11-29T10:50:19.708Z,860
2018-11-29T10:51:30.537Z,944
2018-11-29T10:52:40.724Z,980
2018-11-29T10:53:50.908Z,1096
2018-11-29T10:55:01.095Z,1124
2018-11-29T10:56:11.275Z,1080
2018-11-29T10:57:21.607Z,1036
2018-11-29T10:58:31.850Z,1000
2018-11-29T10:59:42.032Z,980
2018-11-29T11:00:52.213Z,1008
2018-11-29T11:02:02.399Z,1048
2018-11-29T11:03:12.593Z,1068
2018-11-29T11:04:22.777Z,1036
2018-11-29T11:05:32.966Z,1028
2018-11-29T11:06:43.147Z,1072
2018-11-29T11:07:53.331Z,1076
2018-11-29T11:09:03.618Z,944
2018-11-29T11:10:13.797Z,836
2018-11-29T11:11:23.979Z,744
2018-11-29T11:12:34.163Z,784
2018-11-29T11:13:44.352Z,776
2018-11-29T11:14:54.585Z,756
2018-11-29T11:16:04.768Z,768
2018-11-29T11:17:14.948Z,748
2018-11-29T11:18:25.143Z,732
2018-11-29T11:19:35.331Z,680
2018-11-29T11:20:45.528Z,620
2018-11-29T11:21:55.715Z,588
2018-11-29T11:23:05.896Z,580
2018-11-29T11:24:16.080Z,548
2018-11-29T11:25:26.260Z,556
2018-11-29T11:26:36.447Z,564
2018-11-29T11:27:46.628Z,572
2018-11-29T11:28:56.806Z,600
2018-11-29T11:30:06.997Z,620
2018-11-29T11:31:17.178Z,644
2018-11-29T11:32:27.368Z,740
2018-11-29T11:33:37.285Z,876
2018-11-29T11:34:47.470Z,972
2018-11-29T11:35:57.704Z,1060
2018-11-29T11:37:07.883Z,996
2018-11-29T11:38:17.642Z,912
2018-11-29T11:39:27.824Z,924
2018-11-29T11:40:38.004Z,860
2018-11-29T11:41:47.924Z,736
2018-11-29T11:42:58.114Z,676
2018-11-29T11:44:13.019Z,680
2018-11-29T11:45:23.205Z,692
2018-11-29T11:46:33.397Z,676
2018-11-29T11:47:43.588Z,664
2018-11-29T11:48:53.780Z,648
2018-11-29T11:50:04.061Z,700
2018-11-29T11:51:18.559Z,752
2018-11-29T11:52:28.745Z,760
2018-11-29T11:53:38.925Z,784
2018-11-29T11:54:49.107Z,876
2018-11-29T11:56:01.110Z,944
2018-11-29T11:57:11.291Z,976
2018-11-29T11:58:21.475Z,1068
2018-11-29T11:59:31.664Z,1144
2018-11-29T12:00:41.852Z,1220
2018-11-29T12:01:52.037Z,1212
2018-11-29T12:03:02.216Z,1264
2018-11-29T12:04:12.460Z,1284
2018-11-29T12:05:22.645Z,1264
2018-11-29T12:06:32.835Z,1272
2018-11-29T12:07:43.032Z,1284
2018-11-29T12:08:53.214Z,1400
2018-11-29T12:10:03.402Z,1380
2018-11-29T12:11:13.584Z,1400
2018-11-29T12:12:23.762Z,1456
2018-11-29T12:13:33.944Z,1432
2018-11-29T12:14:44.129Z,1332
2018-11-29T12:15:54.310Z,1292
2018-11-29T12:17:04.489Z,1200
2018-11-29T12:18:14.670Z,1088
2018-11-29T12:19:24.863Z,1064
2018-11-29T12:20:35.053Z,1224
2018-11-29T12:21:45.242Z,1240
2018-11-29T12:22:55.431Z,1236
2018-11-29T12:24:05.622Z,1264
2018-11-29T12:25:15.799Z,1276
2018-11-29T12:26:25.716Z,1288
2018-11-29T12:27:35.903Z,1444
2018-11-29T12:28:46.085Z,1364
2018-11-29T12:29:56.270Z,1272
2018-11-29T12:31:06.557Z,1136
2018-11-29T12:32:16.736Z,1040
2018-11-29T12:33:26.993Z,932
2018-11-29T12:34:37.171Z,780
2018-11-29T12:35:47.440Z,740
2018-11-29T12:36:57.686Z,764
2018-11-29T12:38:07.876Z,768
2018-11-29T12:39:18.060Z,752
2018-11-29T12:40:28.309Z,756
2018-11-29T12:41:38.493Z,744
2018-11-29T12:42:48.678Z,724
2018-11-29T12:43:58.866Z,840
2018-11-29T12:45:09.046Z,840
2018-11-29T12:46:19.274Z,796
2018-11-29T12:47:29.464Z,700
2018-11-29T12:48:39.750Z,716
2018-11-29T12:49:49.931Z,628
2018-11-29T12:51:00.112Z,500
2018-11-29T12:52:10.304Z,464
2018-11-29T12:53:20.496Z,460
2018-11-29T12:54:30.683Z,472
2018-11-29T12:55:40.872Z,476
2018-11-29T12:56:51.050Z,520
2018-11-29T12:58:12.882Z,500
2018-11-29T12:59:23.123Z,608
2018-11-29T13:00:37.312Z,604
2018-11-29T13:01:47.493Z,512
2018-11-29T13:02:57.680Z,608
2018-11-29T13:04:07.873Z,592
2018-11-29T13:05:18.162Z,584
2018-11-29T13:06:28.363Z,576
2018-11-29T13:07:38.548Z,588
2018-11-29T13:08:51.231Z,632
2018-11-29T13:10:01.424Z,600
2018-11-29T13:11:15.790Z,588
2018-11-29T13:12:25.969Z,588
2018-11-29T13:13:36.158Z,724
2018-11-29T13:14:46.380Z,720
2018-11-29T13:15:56.571Z,684
2018-11-29T13:17:06.758Z,684
2018-11-29T13:18:16.941Z,724
2018-11-29T13:19:27.127Z,696
2018-11-29T13:20:39.812Z,772
2018-11-29T13:21:50.065Z,764
2018-11-29T13:23:00.289Z,656
2018-11-29T13:24:10.623Z,636
2018-11-29T13:25:20.813Z,572
2018-11-29T13:26:30.999Z,524
2018-11-29T13:27:41.317Z,496
2018-11-29T13:28:51.531Z,460
2018-11-29T13:30:01.728Z,404
2018-11-29T13:31:11.911Z,448
2018-11-29T13:32:22.094Z,472
2018-11-29T13:33:32.962Z,432
2018-11-29T13:34:43.286Z,428
2018-11-29T13:35:53.508Z,424
2018-11-29T13:37:03.626Z,380
2018-11-29T13:38:13.930Z,344
2018-11-29T13:39:24.119Z,300
2018-11-29T13:40:34.380Z,264
2018-11-29T13:41:44.307Z,252
2018-11-29T13:42:54.511Z,224
2018-11-29T13:44:04.804Z,228
2018-11-29T13:45:14.990Z,220
2018-11-29T13:46:25.277Z,212
2018-11-29T13:47:36.298Z,180
2018-11-29T13:48:46.615Z,168
2018-11-29T13:49:56.799Z,180
2018-11-29T13:51:06.854Z,192
2018-11-29T13:52:17.039Z,176
2018-11-29T13:53:27.227Z,152
2018-11-29T13:54:37.411Z,152
2018-11-29T13:55:47.936Z,128
2018-11-29T13:56:58.130Z,104
2018-11-29T13:58:08.419Z,112
2018-11-29T13:59:18.689Z,128
2018-11-29T14:00:28.886Z,128
2018-11-29T14:01:39.146Z,120
2018-11-29T14:02:52.073Z,108
2018-11-29T14:04:02.357Z,108
2018-11-29T14:05:12.595Z,84
2018-11-29T14:06:22.862Z,76
2018-11-29T14:07:33.044Z,80
2018-11-29T14:08:43.323Z,76
2018-11-29T14:09:53.560Z,64
2018-11-29T14:11:03.751Z,68
2018-11-29T14:12:14.023Z,68
2018-11-29T14:13:24.252Z,52
2018-11-29T14:14:34.526Z,48
2018-11-29T14:15:45.009Z,52
2018-11-29T14:16:55.281Z,44
2018-11-29T14:18:05.529Z,44
2018-11-29T14:19:15.714Z,44
2018-11-29T14:20:25.896Z,36
2018-11-29T14:21:36.257Z,32
2018-11-29T14:22:46.179Z,32
2018-11-29T14:23:56.361Z,28
2018-11-29T14:25:07.134Z,28
2018-11-29T14:26:17.316Z,28
2018-11-29T14:27:27.532Z,28
2018-11-29T14:28:37.716Z,24
2018-11-29T14:29:47.896Z,24
2018-11-29T14:30:58.113Z,24
2018-11-29T14:32:08.485Z,20
2018-11-29T14:33:19.250Z,16
2018-11-29T14:34:29.435Z,12
2018-11-29T14:35:39.623Z,16
2018-11-29T14:36:49.811Z,12
2018-11-29T14:38:00.035Z,16
2018-11-29T14:39:11.254Z,12
2018-11-29T14:40:21.436Z,8
2018-11-29T14:41:31.620Z,8
2018-11-29T14:42:41.799Z,8
2018-11-29T14:43:51.980Z,4
2018-11-29T14:45:02.266Z,4
2018-11-29T14:46:12.455Z,4
2018-11-29T14:47:22.366Z,4
2018-11-29T14:48:32.546Z,8
2018-11-29T14:49:42.734Z,4
2018-11-29T14:50:52.710Z,4
2018-11-29T14:52:02.893Z,4
2018-11-29T14:53:13.088Z,0
2018-11-29T14:54:23.272Z,4
2018-11-29T14:55:33.471Z,4
2018-11-29T14:56:43.851Z,4
2018-11-29T14:57:54.065Z,0
2018-11-29T14:59:04.255Z,0
2018-11-29T15:00:14.440Z,0
2018-11-29T15:01:24.626Z,0
2018-11-29T15:02:34.858Z,0
2018-11-29T15:03:45.036Z,0
2018-11-29T15:04:55.224Z,0
2018-11-29T15:06:05.401Z,0
2018-11-29T15:07:15.579Z,0
2018-11-29T15:08:25.921Z,0
2018-11-29T15:09:36.101Z,0
2018-11-29T15:10:46.281Z,0
2018-11-29T15:11:56.464Z,0
2018-11-29T15:13:06.649Z,0
2018-11-29T15:14:20.441Z,0
2018-11-29T15:15:30.622Z,0
2018-11-29T15:16:40.803Z,0
2018-11-29T15:17:50.985Z,0
2018-11-29T15:19:01.169Z,0
2018-11-29T15:20:11.498Z,0
2018-11-29T15:21:21.679Z,0
2018-11-29T15:22:31.872Z,0
2018-11-29T15:23:42.105Z,0
2018-11-29T15:24:52.287Z,0
2018-11-29T15:26:02.518Z,0
2018-11-29T15:27:12.704Z,0
2018-11-29T15:28:22.890Z,0
2018-11-29T15:29:33.070Z,0
2018-11-29T15:30:43.256Z,0
2018-11-29T15:31:53.540Z,0
2018-11-29T15:33:03.791Z,0
2018-11-29T15:34:14.045Z,0
2018-11-29T15:35:24.228Z,0
2018-11-29T15:36:34.449Z,0
2018-11-29T15:37:44.794Z,0
2018-11-29T15:38:54.975Z,0
2018-11-29T15:40:05.219Z,0
2018-11-29T15:41:20.583Z,0
2018-11-29T15:42:30.764Z,0
2018-11-29T15:43:41.035Z,0
2018-11-29T15:44:51.214Z,0
2018-11-29T15:46:01.396Z,0
2018-11-29T15:47:11.584Z,0
2018-11-29T15:48:21.569Z,0
2018-11-29T15:49:31.803Z,0
2018-11-29T15:50:41.993Z,0
2018-11-29T15:51:52.178Z,0
2018-11-29T15:53:02.369Z,0
2018-11-29T15:54:12.555Z,0
2018-11-29T15:55:22.845Z,0
2018-11-29T15:56:33.023Z,0
2018-11-29T15:57:43.299Z,0
2018-11-29T15:58:53.481Z,0
2018-11-29T16:00:03.678Z,0
2018-11-29T16:01:13.911Z,0
2018-11-29T16:02:24.095Z,0
2018-11-29T16:03:34.308Z,0
2018-11-29T16:04:44.499Z,0
2018-11-29T16:05:54.795Z,0
2018-11-29T16:07:05.079Z,0
2018-11-29T16:08:15.266Z,0
2018-11-29T16:09:25.442Z,0
2018-11-29T16:10:35.643Z,0
2018-11-29T16:11:45.825Z,0
2018-11-29T16:12:56.198Z,0
2018-11-29T16:14:06.443Z,0
2018-11-29T16:15:16.694Z,0
2018-11-29T16:16:26.873Z,0
2018-11-29T16:17:37.104Z,0
2018-11-29T16:18:47.335Z,0
2018-11-29T16:19:57.525Z,0
2018-11-29T16:21:07.733Z,0
2018-11-29T16:22:17.912Z,0
2018-11-29T16:23:28.094Z,0
2018-11-29T16:24:38.423Z,0
2018-11-29T16:25:48.605Z,0
2018-11-29T16:26:58.791Z,0
2018-11-29T16:28:12.242Z,0
2018-11-29T16:29:22.425Z,0
2018-11-29T16:30:32.758Z,0
2018-11-29T16:31:42.941Z,0
2018-11-29T16:32:53.122Z,0
2018-11-29T16:34:03.300Z,0
2018-11-29T16:35:13.521Z,0
2018-11-29T16:36:23.808Z,0
2018-11-29T16:37:33.992Z,0
2018-11-29T16:38:44.217Z,0
2018-11-29T16:39:54.399Z,0
2018-11-29T16:41:04.589Z,0
2018-11-29T16:42:14.920Z,0
2018-11-29T16:43:25.097Z,0